Augusta, MI

4:05 PM EDT on March 30, 2015 (GMT -0400)
CD Ave. | | Change Station
CLOSE
Current Station
Personal Weather Station
Location: Richland, MI
Elevation: 906 ft
Nearby Weather Stations

Elev 906 ft 42.38 °N, 85.44 °W | Updated 10 seconds ago

Clear
Clear
54.0 °F
Feels Like 54.0 °F
N
6.0
Wind Variable Wind from WSW
Gusts 0.0 mph

Today
High -- | Low -- °F
--% Chance of Precip.
Yesterday
High -- | Low -- °F
Precip. -- in
7:27 AM 8:04 PM
Waxing Gibbous, 82% visible
Pressure 29.97 in
Visibility 10.0 miles
Clouds Clear
Dew Point 27 °F
Humidity 35%
Rainfall 0.00 in
Snow Depth Not available.
UV 6 out of 12
Pollen 5.80 out of 12
Air Quality Not available.
Flu Activity Not available.
METAR KBTL 301953Z 31019G26KT 10SM CLR 13/M04 A2995 RMK AO2 PK WND 29031/1906 SLP147 T01281044

More Conditions Fewer Conditions

Pressure 29.97 in
Visibility 10.0 miles
Clouds Clear
Dew Point 27 °F
Humidity 35%
Rainfall 0.00 in
Snow Depth Not available.
UV 6 out of 12
Pollen 5.80 out of 12
Air Quality Not available.
Flu Activity Not available.
METAR KBTL 301953Z 31019G26KT 10SM CLR 13/M04 A2995 RMK AO2 PK WND 29031/1906 SLP147 T01281044

More Conditions Fewer Conditions

10-Day Weather Forecast

Almanac

Astronomy

Mar. 30, 2015 Rise Set
Actual Time
Civil Twilight
Nautical Twilight
Astronomical Twilight
Moon
Length of Visible Light
Length of Day
Tomorrow will be .
, % of the Moon is Illuminated

Today's Extremes

State Highs State Lows

Community

WunderPhotos

Upload Photos

1,809,578 photos uploaded!

WunderBlogs® & News

Nearby

Air Quality

  Air Quality AQ Index Pollutant
Not available.

Snow Depth

Station Depth Elevation

Earthquake Activity

City Distance Mag. Time & Date
Minimum magnitude displayed is 2.5.

Coastal Water Temperatures

Place Temperature

Stations

Nearby Weather Stations

Station Location Temp. Windchill Dew Point Humidity Wind Precip. Elev Updated Type